sensor_id;sensor_type;location;lat;lon;timestamp;P1;durP1;ratioP1;P2;durP2;ratioP2
18685;SDS011;9473;52.342;13.110;2023-06-22T00:00:33;17.90;;;12.32;;
18685;SDS011;9473;52.342;13.110;2023-06-22T00:03:02;18.15;;;12.13;;
18685;SDS011;9473;52.342;13.110;2023-06-22T00:05:29;18.70;;;12.75;;
18685;SDS011;9473;52.342;13.110;2023-06-22T00:07:56;22.63;;;13.20;;
18685;SDS011;9473;52.342;13.110;2023-06-22T00:10:22;19.25;;;12.10;;
18685;SDS011;9473;52.342;13.110;2023-06-22T00:12:49;17.95;;;12.10;;
18685;SDS011;9473;52.342;13.110;2023-06-22T00:15:16;17.35;;;12.15;;
18685;SDS011;9473;52.342;13.110;2023-06-22T00:17:45;17.27;;;11.77;;
18685;SDS011;9473;52.342;13.110;2023-06-22T00:20:13;18.00;;;12.02;;
18685;SDS011;9473;52.342;13.110;2023-06-22T00:22:41;18.25;;;12.35;;
18685;SDS011;9473;52.342;13.110;2023-06-22T00:25:08;19.02;;;11.57;;
18685;SDS011;9473;52.342;13.110;2023-06-22T00:27:35;17.23;;;12.05;;
18685;SDS011;9473;52.342;13.110;2023-06-22T00:30:03;21.20;;;12.43;;
18685;SDS011;9473;52.342;13.110;2023-06-22T00:32:30;20.80;;;13.60;;
18685;SDS011;9473;52.342;13.110;2023-06-22T00:34:57;19.10;;;13.13;;
18685;SDS011;9473;52.342;13.110;2023-06-22T00:37:26;20.00;;;13.02;;
18685;SDS011;9473;52.342;13.110;2023-06-22T00:39:54;18.02;;;12.93;;
18685;SDS011;9473;52.342;13.110;2023-06-22T00:42:21;17.95;;;12.05;;
18685;SDS011;9473;52.342;13.110;2023-06-22T00:44:48;18.50;;;12.77;;
18685;SDS011;9473;52.342;13.110;2023-06-22T00:47:15;18.92;;;12.20;;
18685;SDS011;9473;52.342;13.110;2023-06-22T00:49:44;18.10;;;12.77;;
18685;SDS011;9473;52.342;13.110;2023-06-22T00:52:11;16.27;;;11.88;;
18685;SDS011;9473;52.342;13.110;2023-06-22T00:54:46;16.48;;;11.77;;
18685;SDS011;9473;52.342;13.110;2023-06-22T00:57:15;15.85;;;11.32;;
18685;SDS011;9473;52.342;13.110;2023-06-22T00:59:43;18.75;;;11.98;;
18685;SDS011;9473;52.342;13.110;2023-06-22T01:02:10;18.75;;;11.93;;
18685;SDS011;9473;52.342;13.110;2023-06-22T01:04:38;18.42;;;12.38;;
18685;SDS011;9473;52.342;13.110;2023-06-22T01:07:07;20.98;;;12.48;;
18685;SDS011;9473;52.342;13.110;2023-06-22T01:09:40;17.42;;;11.68;;
18685;SDS011;9473;52.342;13.110;2023-06-22T01:12:10;18.38;;;11.90;;
18685;SDS011;9473;52.342;13.110;2023-06-22T01:14:39;18.13;;;12.20;;
18685;SDS011;9473;52.342;13.110;2023-06-22T01:17:08;20.23;;;12.73;;
18685;SDS011;9473;52.342;13.110;2023-06-22T01:19:39;17.75;;;11.40;;
18685;SDS011;9473;52.342;13.110;2023-06-22T01:22:07;19.55;;;12.25;;
18685;SDS011;9473;52.342;13.110;2023-06-22T01:24:40;18.20;;;11.80;;
18685;SDS011;9473;52.342;13.110;2023-06-22T01:27:14;19.33;;;12.77;;
18685;SDS011;9473;52.342;13.110;2023-06-22T01:29:48;18.88;;;12.90;;
18685;SDS011;9473;52.342;13.110;2023-06-22T01:32:15;19.02;;;12.70;;
18685;SDS011;9473;52.342;13.110;2023-06-22T01:34:42;18.02;;;12.60;;
18685;SDS011;9473;52.342;13.110;2023-06-22T01:37:09;21.42;;;13.63;;
18685;SDS011;9473;52.342;13.110;2023-06-22T01:39:36;17.92;;;12.32;;
18685;SDS011;9473;52.342;13.110;2023-06-22T01:42:03;17.30;;;12.40;;
18685;SDS011;9473;52.342;13.110;2023-06-22T01:44:31;19.02;;;12.63;;
18685;SDS011;9473;52.342;13.110;2023-06-22T01:46:59;17.65;;;12.10;;
18685;SDS011;9473;52.342;13.110;2023-06-22T01:49:26;19.10;;;12.90;;
18685;SDS011;9473;52.342;13.110;2023-06-22T01:51:53;15.65;;;11.18;;
18685;SDS011;9473;52.342;13.110;2023-06-22T01:54:20;19.50;;;12.23;;
18685;SDS011;9473;52.342;13.110;2023-06-22T01:56:47;17.48;;;12.57;;
18685;SDS011;9473;52.342;13.110;2023-06-22T01:59:15;20.20;;;12.93;;
18685;SDS011;9473;52.342;13.110;2023-06-22T02:01:50;18.70;;;12.43;;
18685;SDS011;9473;52.342;13.110;2023-06-22T02:04:23;21.13;;;12.98;;
18685;SDS011;9473;52.342;13.110;2023-06-22T02:06:51;17.52;;;12.00;;
18685;SDS011;9473;52.342;13.110;2023-06-22T02:09:19;22.83;;;12.82;;
18685;SDS011;9473;52.342;13.110;2023-06-22T02:11:47;20.00;;;12.77;;
18685;SDS011;9473;52.342;13.110;2023-06-22T02:14:16;18.80;;;12.80;;
18685;SDS011;9473;52.342;13.110;2023-06-22T02:16:43;18.10;;;13.45;;
18685;SDS011;9473;52.342;13.110;2023-06-22T02:19:10;19.08;;;12.30;;
18685;SDS011;9473;52.342;13.110;2023-06-22T02:21:39;17.52;;;12.35;;
18685;SDS011;9473;52.342;13.110;2023-06-22T02:24:06;17.17;;;12.30;;
18685;SDS011;9473;52.342;13.110;2023-06-22T02:26:32;19.08;;;12.13;;
18685;SDS011;9473;52.342;13.110;2023-06-22T02:28:59;16.83;;;11.85;;
18685;SDS011;9473;52.342;13.110;2023-06-22T02:31:26;16.38;;;11.73;;
18685;SDS011;9473;52.342;13.110;2023-06-22T02:33:55;17.80;;;12.63;;
18685;SDS011;9473;52.342;13.110;2023-06-22T02:36:22;16.27;;;11.75;;
18685;SDS011;9473;52.342;13.110;2023-06-22T02:38:51;18.13;;;12.15;;
18685;SDS011;9473;52.342;13.110;2023-06-22T02:41:19;19.98;;;12.48;;
18685;SDS011;9473;52.342;13.110;2023-06-22T02:43:46;18.58;;;12.52;;
18685;SDS011;9473;52.342;13.110;2023-06-22T02:46:13;17.52;;;12.00;;
18685;SDS011;9473;52.342;13.110;2023-06-22T02:48:40;24.20;;;12.35;;
18685;SDS011;9473;52.342;13.110;2023-06-22T02:51:07;18.65;;;11.10;;
18685;SDS011;9473;52.342;13.110;2023-06-22T02:53:34;18.27;;;11.10;;
18685;SDS011;9473;52.342;13.110;2023-06-22T02:56:02;16.48;;;11.25;;
18685;SDS011;9473;52.342;13.110;2023-06-22T02:58:30;18.60;;;12.07;;
18685;SDS011;9473;52.342;13.110;2023-06-22T03:01:03;16.50;;;11.05;;
18685;SDS011;9473;52.342;13.110;2023-06-22T03:03:30;17.45;;;11.60;;
18685;SDS011;9473;52.342;13.110;2023-06-22T03:05:57;16.23;;;10.65;;
18685;SDS011;9473;52.342;13.110;2023-06-22T03:08:25;16.02;;;11.10;;
18685;SDS011;9473;52.342;13.110;2023-06-22T03:10:52;15.85;;;11.32;;
18685;SDS011;9473;52.342;13.110;2023-06-22T03:13:20;19.40;;;12.63;;
18685;SDS011;9473;52.342;13.110;2023-06-22T03:15:47;16.17;;;11.77;;
18685;SDS011;9473;52.342;13.110;2023-06-22T03:18:14;17.77;;;11.55;;
18685;SDS011;9473;52.342;13.110;2023-06-22T03:20:41;18.17;;;11.60;;
18685;SDS011;9473;52.342;13.110;2023-06-22T03:23:08;18.10;;;11.93;;
18685;SDS011;9473;52.342;13.110;2023-06-22T03:25:35;15.23;;;11.38;;
18685;SDS011;9473;52.342;13.110;2023-06-22T03:28:02;17.08;;;12.13;;
18685;SDS011;9473;52.342;13.110;2023-06-22T03:30:30;17.27;;;11.38;;
18685;SDS011;9473;52.342;13.110;2023-06-22T03:32:57;23.15;;;13.23;;
18685;SDS011;9473;52.342;13.110;2023-06-22T03:35:24;16.80;;;10.07;;
18685;SDS011;9473;52.342;13.110;2023-06-22T03:37:51;18.35;;;11.30;;
18685;SDS011;9473;52.342;13.110;2023-06-22T03:40:18;17.98;;;12.45;;
18685;SDS011;9473;52.342;13.110;2023-06-22T03:42:45;16.60;;;11.75;;
18685;SDS011;9473;52.342;13.110;2023-06-22T03:45:12;17.65;;;12.45;;
18685;SDS011;9473;52.342;13.110;2023-06-22T03:47:40;17.77;;;12.38;;
18685;SDS011;9473;52.342;13.110;2023-06-22T03:50:07;15.68;;;11.55;;
18685;SDS011;9473;52.342;13.110;2023-06-22T03:52:35;18.15;;;11.77;;
18685;SDS011;9473;52.342;13.110;2023-06-22T03:55:02;17.17;;;12.35;;
18685;SDS011;9473;52.342;13.110;2023-06-22T03:57:29;17.98;;;11.57;;
18685;SDS011;9473;52.342;13.110;2023-06-22T03:59:56;17.48;;;12.35;;
18685;SDS011;9473;52.342;13.110;2023-06-22T04:02:23;17.27;;;12.15;;
18685;SDS011;9473;52.342;13.110;2023-06-22T04:04:52;15.27;;;11.18;;
18685;SDS011;9473;52.342;13.110;2023-06-22T04:07:19;18.70;;;12.90;;
18685;SDS011;9473;52.342;13.110;2023-06-22T04:09:45;18.90;;;12.75;;
18685;SDS011;9473;52.342;13.110;2023-06-22T04:12:13;18.20;;;12.15;;
18685;SDS011;9473;52.342;13.110;2023-06-22T04:14:39;20.30;;;12.63;;
18685;SDS011;9473;52.342;13.110;2023-06-22T04:17:06;22.23;;;13.27;;
18685;SDS011;9473;52.342;13.110;2023-06-22T04:19:33;17.95;;;12.02;;
18685;SDS011;9473;52.342;13.110;2023-06-22T04:22:01;18.13;;;12.38;;
18685;SDS011;9473;52.342;13.110;2023-06-22T04:24:28;17.25;;;12.52;;
18685;SDS011;9473;52.342;13.110;2023-06-22T04:26:55;16.05;;;11.68;;
18685;SDS011;9473;52.342;13.110;2023-06-22T04:29:23;17.25;;;11.35;;
18685;SDS011;9473;52.342;13.110;2023-06-22T04:31:53;17.40;;;11.82;;
18685;SDS011;9473;52.342;13.110;2023-06-22T04:34:22;17.35;;;11.98;;
18685;SDS011;9473;52.342;13.110;2023-06-22T04:36:51;18.83;;;12.25;;
18685;SDS011;9473;52.342;13.110;2023-06-22T04:39:19;15.90;;;11.77;;
18685;SDS011;9473;52.342;13.110;2023-06-22T04:41:46;15.07;;;10.32;;
18685;SDS011;9473;52.342;13.110;2023-06-22T04:44:14;15.25;;;11.10;;
18685;SDS011;9473;52.342;13.110;2023-06-22T04:46:49;14.93;;;10.75;;
18685;SDS011;9473;52.342;13.110;2023-06-22T04:49:18;17.52;;;11.40;;
18685;SDS011;9473;52.342;13.110;2023-06-22T04:51:45;14.98;;;11.02;;
18685;SDS011;9473;52.342;13.110;2023-06-22T04:54:12;15.38;;;11.10;;
18685;SDS011;9473;52.342;13.110;2023-06-22T04:56:41;14.93;;;11.38;;
18685;SDS011;9473;52.342;13.110;2023-06-22T04:59:08;17.05;;;11.75;;
18685;SDS011;9473;52.342;13.110;2023-06-22T05:01:37;15.98;;;11.30;;
18685;SDS011;9473;52.342;13.110;2023-06-22T05:04:04;17.38;;;11.77;;
18685;SDS011;9473;52.342;13.110;2023-06-22T05:06:32;16.73;;;11.52;;
18685;SDS011;9473;52.342;13.110;2023-06-22T05:08:59;15.48;;;10.95;;
18685;SDS011;9473;52.342;13.110;2023-06-22T05:11:27;13.77;;;9.50;;
18685;SDS011;9473;52.342;13.110;2023-06-22T05:13:56;17.02;;;11.35;;
18685;SDS011;9473;52.342;13.110;2023-06-22T05:16:23;13.55;;;9.20;;
18685;SDS011;9473;52.342;13.110;2023-06-22T05:18:51;17.55;;;10.50;;
18685;SDS011;9473;52.342;13.110;2023-06-22T05:21:20;16.13;;;10.45;;
18685;SDS011;9473;52.342;13.110;2023-06-22T05:23:47;17.42;;;10.10;;
18685;SDS011;9473;52.342;13.110;2023-06-22T05:26:14;14.05;;;9.77;;
18685;SDS011;9473;52.342;13.110;2023-06-22T05:28:41;15.25;;;9.65;;
18685;SDS011;9473;52.342;13.110;2023-06-22T05:31:12;14.63;;;9.07;;
18685;SDS011;9473;52.342;13.110;2023-06-22T05:33:39;13.43;;;8.90;;
18685;SDS011;9473;52.342;13.110;2023-06-22T05:36:06;13.05;;;8.63;;
18685;SDS011;9473;52.342;13.110;2023-06-22T05:38:34;10.43;;;8.30;;
18685;SDS011;9473;52.342;13.110;2023-06-22T05:41:00;12.25;;;8.32;;
18685;SDS011;9473;52.342;13.110;2023-06-22T05:43:27;11.95;;;7.97;;
18685;SDS011;9473;52.342;13.110;2023-06-22T05:45:54;11.70;;;7.90;;
18685;SDS011;9473;52.342;13.110;2023-06-22T05:48:23;13.43;;;8.48;;
18685;SDS011;9473;52.342;13.110;2023-06-22T05:50:50;12.23;;;8.13;;
18685;SDS011;9473;52.342;13.110;2023-06-22T05:53:17;14.50;;;8.88;;
18685;SDS011;9473;52.342;13.110;2023-06-22T05:55:44;12.45;;;8.20;;
18685;SDS011;9473;52.342;13.110;2023-06-22T05:58:11;12.15;;;8.43;;
18685;SDS011;9473;52.342;13.110;2023-06-22T06:00:39;14.40;;;8.10;;
18685;SDS011;9473;52.342;13.110;2023-06-22T06:03:06;12.20;;;8.40;;
18685;SDS011;9473;52.342;13.110;2023-06-22T06:05:35;12.68;;;8.93;;
18685;SDS011;9473;52.342;13.110;2023-06-22T06:08:03;11.80;;;8.18;;
18685;SDS011;9473;52.342;13.110;2023-06-22T06:10:30;12.32;;;8.00;;
18685;SDS011;9473;52.342;13.110;2023-06-22T06:12:57;12.27;;;8.32;;
18685;SDS011;9473;52.342;13.110;2023-06-22T06:15:27;13.55;;;8.30;;
18685;SDS011;9473;52.342;13.110;2023-06-22T06:17:54;12.73;;;7.68;;
18685;SDS011;9473;52.342;13.110;2023-06-22T06:20:22;10.55;;;7.10;;
18685;SDS011;9473;52.342;13.110;2023-06-22T06:22:50;10.43;;;7.47;;
18685;SDS011;9473;52.342;13.110;2023-06-22T06:25:17;10.20;;;7.13;;
18685;SDS011;9473;52.342;13.110;2023-06-22T06:27:46;10.10;;;6.93;;
18685;SDS011;9473;52.342;13.110;2023-06-22T06:30:14;12.85;;;6.70;;
18685;SDS011;9473;52.342;13.110;2023-06-22T06:32:41;12.85;;;6.75;;
18685;SDS011;9473;52.342;13.110;2023-06-22T06:35:10;9.30;;;6.13;;
18685;SDS011;9473;52.342;13.110;2023-06-22T06:37:38;11.13;;;6.50;;
18685;SDS011;9473;52.342;13.110;2023-06-22T06:40:07;7.10;;;5.85;;
18685;SDS011;9473;52.342;13.110;2023-06-22T06:42:35;7.35;;;5.07;;
18685;SDS011;9473;52.342;13.110;2023-06-22T06:45:03;8.93;;;5.75;;
18685;SDS011;9473;52.342;13.110;2023-06-22T06:47:30;9.35;;;5.57;;
18685;SDS011;9473;52.342;13.110;2023-06-22T06:49:57;9.00;;;5.25;;
18685;SDS011;9473;52.342;13.110;2023-06-22T06:52:24;9.98;;;5.28;;
18685;SDS011;9473;52.342;13.110;2023-06-22T06:54:51;11.57;;;5.47;;
18685;SDS011;9473;52.342;13.110;2023-06-22T06:57:20;7.63;;;5.30;;
18685;SDS011;9473;52.342;13.110;2023-06-22T06:59:47;7.80;;;5.47;;
18685;SDS011;9473;52.342;13.110;2023-06-22T07:02:14;8.32;;;4.72;;
18685;SDS011;9473;52.342;13.110;2023-06-22T07:04:41;7.97;;;4.80;;
18685;SDS011;9473;52.342;13.110;2023-06-22T07:07:08;7.72;;;4.47;;
18685;SDS011;9473;52.342;13.110;2023-06-22T07:09:35;6.47;;;4.68;;
18685;SDS011;9473;52.342;13.110;2023-06-22T07:12:02;7.03;;;4.40;;
18685;SDS011;9473;52.342;13.110;2023-06-22T07:14:30;5.90;;;4.57;;
18685;SDS011;9473;52.342;13.110;2023-06-22T07:16:57;6.25;;;4.28;;
18685;SDS011;9473;52.342;13.110;2023-06-22T07:19:24;7.45;;;4.55;;
18685;SDS011;9473;52.342;13.110;2023-06-22T07:21:52;8.65;;;4.72;;
18685;SDS011;9473;52.342;13.110;2023-06-22T07:24:18;8.10;;;5.05;;
18685;SDS011;9473;52.342;13.110;2023-06-22T07:26:46;6.40;;;4.32;;
18685;SDS011;9473;52.342;13.110;2023-06-22T07:29:13;9.88;;;5.00;;
18685;SDS011;9473;52.342;13.110;2023-06-22T07:31:41;8.05;;;4.65;;
18685;SDS011;9473;52.342;13.110;2023-06-22T07:34:08;7.50;;;4.85;;
18685;SDS011;9473;52.342;13.110;2023-06-22T07:36:35;8.70;;;4.68;;
18685;SDS011;9473;52.342;13.110;2023-06-22T07:39:02;6.88;;;4.60;;
18685;SDS011;9473;52.342;13.110;2023-06-22T07:41:29;7.03;;;4.72;;
18685;SDS011;9473;52.342;13.110;2023-06-22T07:43:56;5.63;;;4.50;;
18685;SDS011;9473;52.342;13.110;2023-06-22T07:46:23;6.15;;;4.57;;
18685;SDS011;9473;52.342;13.110;2023-06-22T07:48:51;9.27;;;5.00;;
18685;SDS011;9473;52.342;13.110;2023-06-22T07:51:18;7.47;;;4.43;;
18685;SDS011;9473;52.342;13.110;2023-06-22T07:53:45;6.03;;;4.47;;
18685;SDS011;9473;52.342;13.110;2023-06-22T07:56:12;7.43;;;4.68;;
18685;SDS011;9473;52.342;13.110;2023-06-22T07:58:43;5.85;;;4.47;;
18685;SDS011;9473;52.342;13.110;2023-06-22T08:01:10;6.18;;;4.43;;
18685;SDS011;9473;52.342;13.110;2023-06-22T08:03:38;7.07;;;4.53;;
18685;SDS011;9473;52.342;13.110;2023-06-22T08:06:06;6.97;;;4.22;;
18685;SDS011;9473;52.342;13.110;2023-06-22T08:08:34;8.63;;;5.00;;
18685;SDS011;9473;52.342;13.110;2023-06-22T08:11:01;7.30;;;4.63;;
18685;SDS011;9473;52.342;13.110;2023-06-22T08:13:28;8.30;;;5.28;;
18685;SDS011;9473;52.342;13.110;2023-06-22T08:15:55;5.78;;;4.13;;
18685;SDS011;9473;52.342;13.110;2023-06-22T08:18:22;6.30;;;4.40;;
18685;SDS011;9473;52.342;13.110;2023-06-22T08:20:49;6.60;;;4.60;;
18685;SDS011;9473;52.342;13.110;2023-06-22T08:23:17;6.47;;;4.75;;
18685;SDS011;9473;52.342;13.110;2023-06-22T08:25:45;7.28;;;4.65;;
18685;SDS011;9473;52.342;13.110;2023-06-22T08:28:13;8.40;;;4.55;;
18685;SDS011;9473;52.342;13.110;2023-06-22T08:30:40;7.95;;;4.38;;
18685;SDS011;9473;52.342;13.110;2023-06-22T08:33:06;6.78;;;4.35;;
18685;SDS011;9473;52.342;13.110;2023-06-22T08:35:33;6.38;;;4.80;;
18685;SDS011;9473;52.342;13.110;2023-06-22T08:38:01;5.60;;;4.43;;
18685;SDS011;9473;52.342;13.110;2023-06-22T08:40:29;5.97;;;4.65;;
18685;SDS011;9473;52.342;13.110;2023-06-22T08:42:56;7.15;;;4.47;;
18685;SDS011;9473;52.342;13.110;2023-06-22T08:45:23;6.57;;;4.15;;
18685;SDS011;9473;52.342;13.110;2023-06-22T08:47:50;8.30;;;4.43;;
18685;SDS011;9473;52.342;13.110;2023-06-22T08:50:17;6.25;;;4.32;;
18685;SDS011;9473;52.342;13.110;2023-06-22T08:52:44;7.97;;;5.00;;
18685;SDS011;9473;52.342;13.110;2023-06-22T08:55:10;5.97;;;4.45;;
18685;SDS011;9473;52.342;13.110;2023-06-22T08:57:40;6.90;;;4.10;;
18685;SDS011;9473;52.342;13.110;2023-06-22T09:00:08;6.47;;;4.20;;
18685;SDS011;9473;52.342;13.110;2023-06-22T09:02:41;6.60;;;4.38;;
18685;SDS011;9473;52.342;13.110;2023-06-22T09:05:09;8.50;;;4.40;;
18685;SDS011;9473;52.342;13.110;2023-06-22T09:07:36;6.85;;;4.50;;
18685;SDS011;9473;52.342;13.110;2023-06-22T09:10:03;6.43;;;4.20;;
18685;SDS011;9473;52.342;13.110;2023-06-22T09:12:30;9.38;;;4.45;;
18685;SDS011;9473;52.342;13.110;2023-06-22T09:14:59;9.32;;;4.30;;
18685;SDS011;9473;52.342;13.110;2023-06-22T09:17:26;7.93;;;4.70;;
18685;SDS011;9473;52.342;13.110;2023-06-22T09:19:53;7.55;;;4.60;;
18685;SDS011;9473;52.342;13.110;2023-06-22T09:22:20;7.80;;;4.70;;
18685;SDS011;9473;52.342;13.110;2023-06-22T09:24:47;6.30;;;4.07;;
18685;SDS011;9473;52.342;13.110;2023-06-22T09:27:14;6.95;;;4.50;;
18685;SDS011;9473;52.342;13.110;2023-06-22T09:29:41;6.53;;;4.50;;
18685;SDS011;9473;52.342;13.110;2023-06-22T09:32:09;6.50;;;4.80;;
18685;SDS011;9473;52.342;13.110;2023-06-22T09:34:36;8.82;;;4.55;;
18685;SDS011;9473;52.342;13.110;2023-06-22T09:37:03;5.38;;;4.43;;
18685;SDS011;9473;52.342;13.110;2023-06-22T09:39:30;5.68;;;3.97;;
18685;SDS011;9473;52.342;13.110;2023-06-22T09:41:57;6.07;;;4.57;;
18685;SDS011;9473;52.342;13.110;2023-06-22T09:44:25;8.13;;;4.78;;
18685;SDS011;9473;52.342;13.110;2023-06-22T09:46:51;8.02;;;4.65;;
18685;SDS011;9473;52.342;13.110;2023-06-22T09:49:20;5.78;;;4.30;;
18685;SDS011;9473;52.342;13.110;2023-06-22T09:51:47;6.70;;;4.63;;
18685;SDS011;9473;52.342;13.110;2023-06-22T09:54:14;6.85;;;4.63;;
18685;SDS011;9473;52.342;13.110;2023-06-22T09:56:41;7.32;;;4.90;;
18685;SDS011;9473;52.342;13.110;2023-06-22T09:59:08;7.38;;;4.95;;
18685;SDS011;9473;52.342;13.110;2023-06-22T10:01:35;6.50;;;4.70;;
18685;SDS011;9473;52.342;13.110;2023-06-22T10:04:02;8.02;;;4.80;;
18685;SDS011;9473;52.342;13.110;2023-06-22T10:06:30;8.07;;;4.30;;
18685;SDS011;9473;52.342;13.110;2023-06-22T10:08:57;7.38;;;4.88;;
18685;SDS011;9473;52.342;13.110;2023-06-22T10:11:24;7.65;;;4.70;;
18685;SDS011;9473;52.342;13.110;2023-06-22T10:13:55;8.32;;;4.95;;
18685;SDS011;9473;52.342;13.110;2023-06-22T10:16:23;8.40;;;4.50;;
18685;SDS011;9473;52.342;13.110;2023-06-22T10:18:51;7.57;;;5.20;;
18685;SDS011;9473;52.342;13.110;2023-06-22T10:21:18;5.70;;;4.40;;
18685;SDS011;9473;52.342;13.110;2023-06-22T10:23:46;9.02;;;4.82;;
18685;SDS011;9473;52.342;13.110;2023-06-22T10:26:13;9.50;;;4.57;;
18685;SDS011;9473;52.342;13.110;2023-06-22T10:28:40;7.60;;;4.55;;
18685;SDS011;9473;52.342;13.110;2023-06-22T10:31:07;9.20;;;4.68;;
18685;SDS011;9473;52.342;13.110;2023-06-22T10:33:34;8.85;;;4.80;;
18685;SDS011;9473;52.342;13.110;2023-06-22T10:36:01;6.10;;;4.47;;
18685;SDS011;9473;52.342;13.110;2023-06-22T10:38:28;6.82;;;4.72;;
18685;SDS011;9473;52.342;13.110;2023-06-22T10:40:56;9.45;;;5.13;;
18685;SDS011;9473;52.342;13.110;2023-06-22T10:43:23;6.32;;;4.45;;
18685;SDS011;9473;52.342;13.110;2023-06-22T10:45:50;7.78;;;5.13;;
18685;SDS011;9473;52.342;13.110;2023-06-22T10:48:17;9.15;;;5.13;;
18685;SDS011;9473;52.342;13.110;2023-06-22T10:50:44;8.52;;;4.85;;
18685;SDS011;9473;52.342;13.110;2023-06-22T10:53:11;8.07;;;4.82;;
18685;SDS011;9473;52.342;13.110;2023-06-22T10:55:38;5.63;;;4.80;;
18685;SDS011;9473;52.342;13.110;2023-06-22T10:58:06;6.47;;;4.60;;
18685;SDS011;9473;52.342;13.110;2023-06-22T11:00:33;6.75;;;4.90;;
18685;SDS011;9473;52.342;13.110;2023-06-22T11:03:00;8.95;;;5.10;;
18685;SDS011;9473;52.342;13.110;2023-06-22T11:05:29;6.45;;;4.90;;
18685;SDS011;9473;52.342;13.110;2023-06-22T11:07:57;6.22;;;4.75;;
18685;SDS011;9473;52.342;13.110;2023-06-22T11:10:24;7.65;;;4.90;;
18685;SDS011;9473;52.342;13.110;2023-06-22T11:12:52;6.85;;;4.65;;
18685;SDS011;9473;52.342;13.110;2023-06-22T11:15:22;5.70;;;4.50;;
18685;SDS011;9473;52.342;13.110;2023-06-22T11:17:48;6.13;;;4.78;;
18685;SDS011;9473;52.342;13.110;2023-06-22T11:20:15;8.90;;;5.00;;
18685;SDS011;9473;52.342;13.110;2023-06-22T11:22:42;7.18;;;4.75;;
18685;SDS011;9473;52.342;13.110;2023-06-22T11:25:09;7.93;;;4.60;;
18685;SDS011;9473;52.342;13.110;2023-06-22T11:27:37;8.73;;;4.72;;
18685;SDS011;9473;52.342;13.110;2023-06-22T11:30:05;6.15;;;4.90;;
18685;SDS011;9473;52.342;13.110;2023-06-22T11:32:33;7.78;;;4.82;;
18685;SDS011;9473;52.342;13.110;2023-06-22T11:35:00;11.18;;;5.00;;
18685;SDS011;9473;52.342;13.110;2023-06-22T11:37:27;9.80;;;4.85;;
18685;SDS011;9473;52.342;13.110;2023-06-22T11:39:54;6.28;;;4.70;;
18685;SDS011;9473;52.342;13.110;2023-06-22T11:42:21;6.80;;;4.75;;
18685;SDS011;9473;52.342;13.110;2023-06-22T11:44:50;7.25;;;4.32;;
18685;SDS011;9473;52.342;13.110;2023-06-22T11:47:17;6.38;;;4.60;;
18685;SDS011;9473;52.342;13.110;2023-06-22T11:49:45;6.72;;;4.30;;
18685;SDS011;9473;52.342;13.110;2023-06-22T11:52:12;6.40;;;4.78;;
18685;SDS011;9473;52.342;13.110;2023-06-22T11:54:39;8.13;;;4.78;;
18685;SDS011;9473;52.342;13.110;2023-06-22T11:57:06;6.18;;;4.70;;
18685;SDS011;9473;52.342;13.110;2023-06-22T11:59:33;6.68;;;4.30;;
18685;SDS011;9473;52.342;13.110;2023-06-22T12:02:00;5.80;;;4.45;;
18685;SDS011;9473;52.342;13.110;2023-06-22T12:04:27;6.82;;;4.47;;
18685;SDS011;9473;52.342;13.110;2023-06-22T12:06:55;6.20;;;4.60;;
18685;SDS011;9473;52.342;13.110;2023-06-22T12:09:23;9.00;;;4.78;;
18685;SDS011;9473;52.342;13.110;2023-06-22T12:11:50;5.70;;;4.55;;
18685;SDS011;9473;52.342;13.110;2023-06-22T12:14:17;5.20;;;4.20;;
18685;SDS011;9473;52.342;13.110;2023-06-22T12:16:44;5.60;;;4.30;;
18685;SDS011;9473;52.342;13.110;2023-06-22T12:19:11;6.45;;;4.45;;
18685;SDS011;9473;52.342;13.110;2023-06-22T12:21:38;5.60;;;4.18;;
18685;SDS011;9473;52.342;13.110;2023-06-22T12:24:07;6.00;;;4.90;;
18685;SDS011;9473;52.342;13.110;2023-06-22T12:26:33;7.45;;;4.43;;
18685;SDS011;9473;52.342;13.110;2023-06-22T12:29:00;6.90;;;4.45;;
18685;SDS011;9473;52.342;13.110;2023-06-22T12:31:27;6.90;;;4.60;;
18685;SDS011;9473;52.342;13.110;2023-06-22T12:33:54;5.50;;;4.10;;
18685;SDS011;9473;52.342;13.110;2023-06-22T12:36:21;5.25;;;4.15;;
18685;SDS011;9473;52.342;13.110;2023-06-22T12:38:49;7.57;;;5.10;;
18685;SDS011;9473;52.342;13.110;2023-06-22T12:41:18;7.32;;;4.60;;
18685;SDS011;9473;52.342;13.110;2023-06-22T12:43:45;6.30;;;4.80;;
18685;SDS011;9473;52.342;13.110;2023-06-22T12:46:11;6.65;;;4.53;;
18685;SDS011;9473;52.342;13.110;2023-06-22T12:48:38;5.93;;;4.65;;
18685;SDS011;9473;52.342;13.110;2023-06-22T12:51:07;7.13;;;4.97;;
18685;SDS011;9473;52.342;13.110;2023-06-22T12:53:34;5.85;;;4.60;;
18685;SDS011;9473;52.342;13.110;2023-06-22T12:56:01;5.47;;;4.43;;
18685;SDS011;9473;52.342;13.110;2023-06-22T12:58:30;6.47;;;4.70;;
18685;SDS011;9473;52.342;13.110;2023-06-22T13:00:57;7.30;;;4.45;;
18685;SDS011;9473;52.342;13.110;2023-06-22T13:03:23;4.75;;;4.28;;
18685;SDS011;9473;52.342;13.110;2023-06-22T13:05:52;7.88;;;4.53;;
18685;SDS011;9473;52.342;13.110;2023-06-22T13:08:19;6.30;;;4.22;;
18685;SDS011;9473;52.342;13.110;2023-06-22T13:10:46;5.15;;;4.20;;
18685;SDS011;9473;52.342;13.110;2023-06-22T13:13:13;5.60;;;4.22;;
18685;SDS011;9473;52.342;13.110;2023-06-22T13:15:41;5.53;;;4.00;;
18685;SDS011;9473;52.342;13.110;2023-06-22T13:18:08;5.75;;;4.50;;
18685;SDS011;9473;52.342;13.110;2023-06-22T13:20:35;6.45;;;4.30;;
18685;SDS011;9473;52.342;13.110;2023-06-22T13:23:02;6.35;;;4.40;;
18685;SDS011;9473;52.342;13.110;2023-06-22T13:25:29;6.70;;;4.13;;
18685;SDS011;9473;52.342;13.110;2023-06-22T13:27:56;5.82;;;4.10;;
18685;SDS011;9473;52.342;13.110;2023-06-22T13:30:23;7.32;;;4.35;;
18685;SDS011;9473;52.342;13.110;2023-06-22T13:32:51;5.70;;;4.53;;
18685;SDS011;9473;52.342;13.110;2023-06-22T13:35:18;6.13;;;4.78;;
18685;SDS011;9473;52.342;13.110;2023-06-22T13:37:45;8.18;;;4.63;;
18685;SDS011;9473;52.342;13.110;2023-06-22T13:40:12;8.88;;;4.28;;
18685;SDS011;9473;52.342;13.110;2023-06-22T13:42:39;5.22;;;4.43;;
18685;SDS011;9473;52.342;13.110;2023-06-22T13:45:07;7.07;;;4.47;;
18685;SDS011;9473;52.342;13.110;2023-06-22T13:47:34;5.72;;;4.25;;
18685;SDS011;9473;52.342;13.110;2023-06-22T13:50:02;6.05;;;4.50;;
18685;SDS011;9473;52.342;13.110;2023-06-22T13:52:29;7.15;;;4.63;;
18685;SDS011;9473;52.342;13.110;2023-06-22T13:54:56;7.60;;;4.78;;
18685;SDS011;9473;52.342;13.110;2023-06-22T13:57:23;5.43;;;4.20;;
18685;SDS011;9473;52.342;13.110;2023-06-22T13:59:50;6.20;;;4.40;;
18685;SDS011;9473;52.342;13.110;2023-06-22T14:02:17;8.35;;;4.78;;
18685;SDS011;9473;52.342;13.110;2023-06-22T14:04:44;6.55;;;4.68;;
18685;SDS011;9473;52.342;13.110;2023-06-22T14:07:12;5.57;;;4.30;;
18685;SDS011;9473;52.342;13.110;2023-06-22T14:09:39;6.80;;;4.65;;
18685;SDS011;9473;52.342;13.110;2023-06-22T14:12:07;6.82;;;4.78;;
18685;SDS011;9473;52.342;13.110;2023-06-22T14:14:34;6.47;;;4.53;;
18685;SDS011;9473;52.342;13.110;2023-06-22T14:17:01;6.20;;;5.00;;
18685;SDS011;9473;52.342;13.110;2023-06-22T14:19:28;8.48;;;5.00;;
18685;SDS011;9473;52.342;13.110;2023-06-22T14:21:54;5.95;;;4.80;;
18685;SDS011;9473;52.342;13.110;2023-06-22T14:24:23;7.22;;;5.15;;
18685;SDS011;9473;52.342;13.110;2023-06-22T14:26:50;6.82;;;4.40;;
18685;SDS011;9473;52.342;13.110;2023-06-22T14:29:17;7.82;;;4.85;;
18685;SDS011;9473;52.342;13.110;2023-06-22T14:31:44;5.50;;;4.43;;
18685;SDS011;9473;52.342;13.110;2023-06-22T14:34:11;6.50;;;4.80;;
18685;SDS011;9473;52.342;13.110;2023-06-22T14:36:38;7.40;;;4.90;;